Terminal Aerodrome Forecast
Issued by NWS Tuscon, AZ

Home | Current Version | Previous Version | Text Only | Print | Product List | Glossary On
Versions: 1 2 3 4 5 6 7 8 9 10 11 12 13 14 15
228
FTUS45 KTWC 262327
TAFDUG
TAF
KDUG 262327Z 2700/2724 09016G25KT P6SM SCT050 BKN130 BKN200
     FM270800 07013G20KT P6SM SCT060 BKN120 BKN180
     FM271200 06012KT P6SM VCSH FEW040 SCT070 BKN090
     FM271900 09012KT P6SM VCSH SCT070 BKN120=

USA.gov is the U.S. government's official web portal to all federal, state and local government web resources and services.